createdAt,value
2019-05-21T00:00:10.853Z,10.72
2019-05-21T00:02:40.302Z,10.63
2019-05-21T00:05:09.837Z,10.53
2019-05-21T00:07:39.250Z,10.23
2019-05-21T00:10:08.795Z,11.60
2019-05-21T00:12:38.181Z,11.05
2019-05-21T00:15:08.061Z,12.90
2019-05-21T00:17:37.505Z,12.98
2019-05-21T00:20:07.640Z,11.38
2019-05-21T00:22:37.046Z,12.25
2019-05-21T00:25:06.808Z,11.65
2019-05-21T00:27:36.283Z,12.93
2019-05-21T00:30:41.971Z,11.38
2019-05-21T00:33:47.697Z,11.22
2019-05-21T00:36:55.355Z,15.10
2019-05-21T00:40:01.365Z,12.93
2019-05-21T00:42:36.801Z,12.23
2019-05-21T00:45:11.588Z,13.30
2019-05-21T00:47:41.036Z,11.80
2019-05-21T00:50:11.695Z,11.88
2019-05-21T00:52:41.054Z,12.50
2019-05-21T00:55:10.472Z,13.35
2019-05-21T00:57:39.935Z,13.83
2019-05-21T01:00:10.076Z,13.75
2019-05-21T01:02:39.687Z,14.03
2019-05-21T01:05:09.209Z,13.30
2019-05-21T01:07:38.656Z,13.10
2019-05-21T01:10:08.479Z,12.65
2019-05-21T01:12:37.885Z,15.20
2019-05-21T01:15:08.146Z,14.78
2019-05-21T01:17:37.563Z,12.95
2019-05-21T01:20:07.124Z,14.10
2019-05-21T01:22:36.566Z,13.68
2019-05-21T01:25:06.899Z,16.80
2019-05-21T01:27:36.343Z,15.23
2019-05-21T01:30:06.998Z,14.78
2019-05-21T01:32:36.431Z,13.88
2019-05-21T01:35:16.735Z,11.45
2019-05-21T01:37:37.846Z,12.45
2019-05-21T01:40:07.249Z,11.88
2019-05-21T01:42:36.593Z,13.98
2019-05-21T01:45:07.040Z,14.65
2019-05-21T01:47:36.545Z,14.60
2019-05-21T01:50:07.053Z,14.87
2019-05-21T01:52:36.417Z,14.60
2019-05-21T01:55:06.497Z,14.43
2019-05-21T01:57:35.932Z,15.53
2019-05-21T02:00:06.943Z,15.95
2019-05-21T02:02:36.479Z,13.80
2019-05-21T02:05:07.430Z,14.25
2019-05-21T02:07:37.065Z,13.83
2019-05-21T02:10:08.260Z,14.65
2019-05-21T02:12:37.800Z,14.05
2019-05-21T02:15:07.862Z,14.10
2019-05-21T02:17:37.209Z,14.30
2019-05-21T02:20:06.983Z,13.88
2019-05-21T02:22:36.421Z,14.65
2019-05-21T02:25:07.580Z,13.32
2019-05-21T02:27:37.023Z,13.40
2019-05-21T02:30:08.720Z,13.30
2019-05-21T02:32:38.449Z,12.95
2019-05-21T02:35:07.810Z,14.43
2019-05-21T02:37:37.248Z,15.70
2019-05-21T02:40:07.183Z,14.70
2019-05-21T02:42:36.642Z,14.75
2019-05-21T02:45:06.989Z,14.23
2019-05-21T02:47:36.451Z,14.50
2019-05-21T02:50:07.811Z,16.32
2019-05-21T02:52:37.227Z,14.87
2019-05-21T02:55:07.490Z,14.93
2019-05-21T02:57:41.465Z,13.38
2019-05-21T03:00:33.252Z,13.98
2019-05-21T03:03:04.363Z,12.73
2019-05-21T03:05:33.745Z,12.90
2019-05-21T03:08:03.173Z,14.20
2019-05-21T03:10:32.600Z,13.22
2019-05-21T03:13:02.080Z,13.65
2019-05-21T03:15:31.403Z,12.68
2019-05-21T03:18:00.841Z,12.43
2019-05-21T03:20:30.294Z,12.13
2019-05-21T03:22:59.715Z,13.28
2019-05-21T03:25:29.165Z,12.90
2019-05-21T03:27:58.517Z,12.80
2019-05-21T03:30:27.902Z,10.60
2019-05-21T03:32:57.248Z,8.63
2019-05-21T03:35:26.683Z,8.55
2019-05-21T03:37:56.129Z,9.40
2019-05-21T03:40:25.617Z,9.73
2019-05-21T03:42:55.070Z,9.80
2019-05-21T03:45:24.675Z,9.73
2019-05-21T03:47:54.229Z,9.30
2019-05-21T03:50:23.648Z,8.38
2019-05-21T03:52:53.089Z,7.55
2019-05-21T03:55:25.513Z,8.35
2019-05-21T03:57:56.442Z,8.58
2019-05-21T04:00:25.996Z,8.10
2019-05-21T04:02:55.372Z,7.50
2019-05-21T04:05:31.482Z,7.58
2019-05-21T04:08:00.954Z,7.83
2019-05-21T04:10:31.877Z,8.38
2019-05-21T04:13:10.365Z,7.78
2019-05-21T04:15:46.817Z,8.40
2019-05-21T04:18:20.368Z,7.87
2019-05-21T04:20:52.359Z,7.35
2019-05-21T04:23:21.481Z,7.75
2019-05-21T04:25:50.902Z,7.92
2019-05-21T04:28:20.344Z,7.10
2019-05-21T04:30:49.725Z,7.97
2019-05-21T04:33:19.065Z,6.37
2019-05-21T04:35:48.492Z,6.60
2019-05-21T04:38:17.936Z,7.22
2019-05-21T04:40:47.307Z,8.15
2019-05-21T04:43:16.737Z,8.08
2019-05-21T04:45:46.127Z,8.15
2019-05-21T04:48:15.509Z,7.22
2019-05-21T04:50:44.912Z,8.55
2019-05-21T04:53:14.326Z,8.45
2019-05-21T04:55:43.786Z,11.55
2019-05-21T04:58:13.172Z,18.57
2019-05-21T05:00:42.605Z,10.35
2019-05-21T05:03:12.047Z,9.28
2019-05-21T05:05:41.705Z,8.00
2019-05-21T05:08:11.176Z,7.58
2019-05-21T05:10:40.816Z,7.92
2019-05-21T05:13:10.222Z,7.22
2019-05-21T05:15:39.622Z,7.60
2019-05-21T05:18:09.067Z,7.25
2019-05-21T05:20:38.527Z,7.97
2019-05-21T05:23:08.051Z,7.50
2019-05-21T05:25:37.478Z,7.03
2019-05-21T05:28:07.019Z,6.53
2019-05-21T05:30:36.650Z,7.05
2019-05-21T05:33:06.039Z,7.17
2019-05-21T05:35:35.752Z,6.50
2019-05-21T05:38:05.127Z,6.25
2019-05-21T05:40:34.603Z,6.10
2019-05-21T05:43:04.199Z,5.87
2019-05-21T05:45:33.716Z,6.08
2019-05-21T05:48:03.188Z,6.37
2019-05-21T05:50:50.401Z,5.58
2019-05-21T05:53:20.006Z,5.80
2019-05-21T05:55:49.458Z,5.40
2019-05-21T05:58:18.905Z,5.00
2019-05-21T06:00:50.503Z,6.00
2019-05-21T06:03:19.593Z,5.97
2019-05-21T06:05:49.273Z,5.53
2019-05-21T06:08:20.167Z,5.40
2019-05-21T06:10:49.653Z,5.28
2019-05-21T06:13:19.148Z,5.30
2019-05-21T06:15:48.725Z,4.75
2019-05-21T06:18:19.523Z,5.25
2019-05-21T06:20:49.203Z,3.90
2019-05-21T06:23:18.918Z,4.85
2019-05-21T06:25:51.383Z,4.58
2019-05-21T06:28:20.969Z,4.15
2019-05-21T06:30:50.402Z,4.70
2019-05-21T06:33:19.599Z,4.60
2019-05-21T06:35:49.062Z,3.73
2019-05-21T06:38:18.650Z,4.10
2019-05-21T06:40:48.219Z,4.00
2019-05-21T06:43:17.735Z,4.30
2019-05-21T06:45:47.079Z,3.87
2019-05-21T06:48:21.656Z,3.93
2019-05-21T06:50:52.243Z,4.13
2019-05-21T06:53:21.533Z,3.97
2019-05-21T06:55:54.032Z,3.70
2019-05-21T06:58:23.564Z,3.80
2019-05-21T07:00:52.871Z,3.97
2019-05-21T07:03:25.385Z,4.10
2019-05-21T07:05:58.832Z,3.73
2019-05-21T07:08:34.192Z,3.63
2019-05-21T07:10:56.771Z,3.97
2019-05-21T07:13:26.068Z,3.30
2019-05-21T07:15:56.805Z,2.80
2019-05-21T07:18:27.648Z,2.60
2019-05-21T07:21:05.951Z,3.10
2019-05-21T07:23:35.170Z,3.27
2019-05-21T07:26:13.520Z,3.17
2019-05-21T07:28:42.992Z,2.90
2019-05-21T07:31:17.229Z,2.20
2019-05-21T07:33:49.038Z,2.20
2019-05-21T07:36:29.754Z,2.60
2019-05-21T07:38:59.075Z,2.70
2019-05-21T07:41:30.135Z,2.50
2019-05-21T07:44:01.189Z,2.43
2019-05-21T07:46:32.449Z,2.80
2019-05-21T07:49:04.709Z,2.77
2019-05-21T07:51:37.007Z,2.93
2019-05-21T07:54:08.470Z,3.17
2019-05-21T07:56:40.962Z,2.47
2019-05-21T07:59:10.471Z,3.23
2019-05-21T08:01:39.729Z,3.50
2019-05-21T08:04:09.137Z,3.03
2019-05-21T08:06:38.390Z,3.20
2019-05-21T08:09:14.091Z,2.83
2019-05-21T08:11:50.372Z,2.87
2019-05-21T08:14:19.538Z,3.83
2019-05-21T08:16:48.915Z,2.93
2019-05-21T08:19:23.437Z,2.73
2019-05-21T08:21:58.346Z,3.30
2019-05-21T08:24:47.193Z,3.57
2019-05-21T08:27:21.855Z,3.00
2019-05-21T08:29:53.874Z,2.93
2019-05-21T08:32:22.906Z,2.90
2019-05-21T08:34:52.357Z,3.20
2019-05-21T08:37:23.077Z,3.20
2019-05-21T08:39:55.316Z,3.60
2019-05-21T08:42:26.069Z,3.03
2019-05-21T08:45:09.676Z,3.10
2019-05-21T08:47:40.308Z,2.90
2019-05-21T08:50:10.460Z,3.07
2019-05-21T08:52:41.229Z,3.30
2019-05-21T08:55:16.361Z,3.20
2019-05-21T09:00:39.615Z,2.80
2019-05-21T09:03:28.948Z,3.00
2019-05-21T09:08:30.267Z,2.93
2019-05-21T09:11:01.219Z,4.13
2019-05-21T09:13:52.259Z,3.37
2019-05-21T09:16:26.064Z,3.57
2019-05-21T09:18:58.548Z,3.37
2019-05-21T09:24:19.171Z,3.27
2019-05-21T09:27:01.458Z,3.00
2019-05-21T09:35:32.158Z,3.40
2019-05-21T09:38:04.532Z,3.60
2019-05-21T09:43:30.206Z,6.77
2019-05-21T09:46:02.096Z,3.60
2019-05-21T09:48:32.746Z,3.43
2019-05-21T09:51:04.824Z,3.33
2019-05-21T09:53:34.091Z,3.27
2019-05-21T09:56:05.159Z,3.70
2019-05-21T09:58:37.402Z,3.40
2019-05-21T10:01:14.305Z,3.13
2019-05-21T10:03:47.890Z,3.07
2019-05-21T10:06:25.993Z,3.70
2019-05-21T10:08:59.016Z,3.20
2019-05-21T10:11:32.941Z,3.40
2019-05-21T10:14:02.175Z,3.13
2019-05-21T10:16:35.476Z,3.40
2019-05-21T10:19:07.578Z,3.37
2019-05-21T10:22:08.380Z,3.10
2019-05-21T10:24:22.518Z,3.10
2019-05-21T10:26:54.496Z,3.40
2019-05-21T10:29:31.947Z,3.10
2019-05-21T10:32:01.375Z,3.23
2019-05-21T10:34:30.965Z,3.27
2019-05-21T10:37:03.475Z,3.47
2019-05-21T10:39:32.802Z,3.30
2019-05-21T10:42:02.209Z,2.87
2019-05-21T10:44:43.667Z,3.23
2019-05-21T10:47:16.205Z,3.50
2019-05-21T10:52:37.681Z,3.47
2019-05-21T10:55:07.095Z,3.57
2019-05-21T10:57:36.242Z,3.13
2019-05-21T11:00:14.670Z,3.47
2019-05-21T11:05:28.969Z,3.40
2019-05-21T11:08:23.060Z,4.80
2019-05-21T11:10:37.961Z,3.57
2019-05-21T11:13:09.414Z,3.70
2019-05-21T11:15:44.187Z,4.87
2019-05-21T11:18:16.735Z,3.43
2019-05-21T11:20:53.335Z,4.60
2019-05-21T11:23:22.417Z,3.97
2019-05-21T11:25:51.539Z,3.87
2019-05-21T11:28:20.668Z,3.53
2019-05-21T11:33:41.978Z,3.23
2019-05-21T11:38:59.409Z,3.43
2019-05-21T11:41:30.764Z,3.87
2019-05-21T11:44:02.779Z,3.30
2019-05-21T11:46:33.925Z,4.03
2019-05-21T11:49:05.879Z,3.53
2019-05-21T11:51:39.411Z,3.33
2019-05-21T11:57:01.368Z,3.40
2019-05-21T11:59:33.272Z,4.03
2019-05-21T12:02:07.028Z,3.40
2019-05-21T12:04:51.819Z,3.57
2019-05-21T12:07:24.107Z,4.40
2019-05-21T12:09:55.263Z,3.73
2019-05-21T12:12:28.274Z,4.10
2019-05-21T12:15:00.579Z,3.97
2019-05-21T12:17:32.484Z,3.60
2019-05-21T12:20:05.169Z,3.60
2019-05-21T12:22:37.663Z,5.30
2019-05-21T12:25:09.288Z,4.00
2019-05-21T12:27:53.128Z,4.10
2019-05-21T12:30:22.737Z,4.70
2019-05-21T12:32:56.057Z,3.80
2019-05-21T12:41:19.838Z,4.10
2019-05-21T12:43:59.169Z,4.07
2019-05-21T12:46:29.424Z,4.00
2019-05-21T12:48:58.828Z,4.20
2019-05-21T12:51:31.215Z,4.80
2019-05-21T12:56:54.682Z,3.40
2019-05-21T12:59:25.604Z,3.57
2019-05-21T13:02:00.733Z,3.07
2019-05-21T13:04:34.227Z,2.87
2019-05-21T13:07:03.832Z,3.00
2019-05-21T13:09:35.691Z,3.00
2019-05-21T13:12:05.131Z,3.10
2019-05-21T13:14:35.722Z,2.97
2019-05-21T13:17:09.223Z,2.90
2019-05-21T13:19:41.521Z,3.60
2019-05-21T13:22:23.809Z,3.40
2019-05-21T13:24:59.239Z,3.40
2019-05-21T13:27:30.223Z,3.10
2019-05-21T13:29:59.623Z,3.07
2019-05-21T13:32:31.880Z,3.17
2019-05-21T13:35:05.792Z,2.70
2019-05-21T13:37:35.430Z,3.17
2019-05-21T13:40:07.531Z,2.70
2019-05-21T13:42:39.800Z,3.23
2019-05-21T13:45:09.575Z,3.33
2019-05-21T13:47:50.288Z,3.40
2019-05-21T13:50:17.020Z,3.40
2019-05-21T13:52:49.291Z,3.67
2019-05-21T13:55:23.603Z,3.70
2019-05-21T13:57:54.173Z,3.40
2019-05-21T14:00:27.747Z,3.60
2019-05-21T14:03:01.362Z,3.90
2019-05-21T14:05:30.582Z,3.43
2019-05-21T14:08:02.043Z,3.70
2019-05-21T14:10:35.518Z,3.80
2019-05-21T14:13:05.429Z,3.50
2019-05-21T14:15:39.799Z,3.87
2019-05-21T14:18:14.220Z,3.77
2019-05-21T14:20:43.398Z,3.70
2019-05-21T14:23:12.528Z,3.50
2019-05-21T14:25:41.584Z,3.57
2019-05-21T14:28:10.657Z,3.33
2019-05-21T14:30:39.754Z,3.70
2019-05-21T14:33:08.844Z,3.80
2019-05-21T14:35:39.679Z,3.20
2019-05-21T14:38:09.292Z,3.03
2019-05-21T14:40:42.845Z,3.13
2019-05-21T14:43:23.114Z,3.00
2019-05-21T14:45:53.102Z,2.67
2019-05-21T14:48:22.438Z,2.77
2019-05-21T14:53:40.035Z,3.03
2019-05-21T14:56:09.160Z,2.80
2019-05-21T14:58:38.341Z,2.50
2019-05-21T15:01:16.368Z,2.83
2019-05-21T15:03:48.517Z,2.57
2019-05-21T15:06:20.905Z,2.60
2019-05-21T15:08:50.507Z,3.70
2019-05-21T15:11:19.653Z,2.73
2019-05-21T15:13:51.361Z,2.50
2019-05-21T15:16:20.857Z,2.30
2019-05-21T15:18:49.988Z,2.50
2019-05-21T15:21:23.869Z,2.50
2019-05-21T15:24:01.167Z,2.30
2019-05-21T15:26:31.108Z,2.40
2019-05-21T15:29:04.514Z,2.57
2019-05-21T15:31:35.398Z,2.07
2019-05-21T15:34:13.840Z,1.90
2019-05-21T15:36:46.575Z,1.50
2019-05-21T15:39:21.987Z,1.90
2019-05-21T15:42:01.809Z,1.60
2019-05-21T15:44:30.800Z,1.40
2019-05-21T15:47:06.580Z,1.17
2019-05-21T15:49:37.141Z,1.20
2019-05-21T15:52:09.837Z,1.20
2019-05-21T15:54:41.709Z,1.77
2019-05-21T15:57:12.470Z,2.00
2019-05-21T15:59:43.461Z,1.77
2019-05-21T16:02:14.795Z,1.10
2019-05-21T16:04:45.505Z,1.30
2019-05-21T16:07:15.033Z,1.30
2019-05-21T16:09:48.154Z,1.70
2019-05-21T16:12:17.506Z,1.23
2019-05-21T16:14:51.211Z,1.30
2019-05-21T16:17:20.630Z,0.80
2019-05-21T16:19:49.857Z,1.13
2019-05-21T16:22:21.248Z,0.87
2019-05-21T16:24:53.778Z,0.77
2019-05-21T16:30:14.621Z,1.00
2019-05-21T16:32:43.588Z,1.20
2019-05-21T16:35:13.032Z,0.97
2019-05-21T16:40:30.557Z,0.90
2019-05-21T16:42:59.616Z,1.20
2019-05-21T16:45:29.091Z,1.10
2019-05-21T16:47:58.393Z,0.70
2019-05-21T16:50:27.844Z,1.27
2019-05-21T16:52:57.275Z,1.13
2019-05-21T16:55:26.694Z,0.83
2019-05-21T16:57:58.913Z,0.63
2019-05-21T17:00:28.784Z,0.80
2019-05-21T17:02:58.225Z,0.80
2019-05-21T17:05:27.476Z,0.90
2019-05-21T17:07:56.982Z,0.90
2019-05-21T17:10:26.282Z,2.00
2019-05-21T17:12:55.457Z,0.90
2019-05-21T17:15:25.011Z,1.20
2019-05-21T17:17:54.513Z,1.13
2019-05-21T17:20:23.925Z,1.10
2019-05-21T17:22:53.141Z,0.90
2019-05-21T17:25:22.761Z,1.50
2019-05-21T17:27:55.985Z,1.22
2019-05-21T17:30:25.494Z,2.10
2019-05-21T17:32:55.026Z,2.10
2019-05-21T17:35:24.653Z,3.45
2019-05-21T17:37:54.285Z,1.80
2019-05-21T17:40:23.767Z,1.70
2019-05-21T17:42:53.203Z,2.80
2019-05-21T17:45:24.183Z,3.70
2019-05-21T17:47:53.852Z,2.22
2019-05-21T17:50:23.420Z,2.90
2019-05-21T17:52:53.035Z,3.08
2019-05-21T17:55:25.834Z,4.85
2019-05-21T17:57:55.519Z,11.65
2019-05-21T18:00:26.666Z,14.43
2019-05-21T18:02:56.478Z,5.90
2019-05-21T18:05:26.393Z,3.40
2019-05-21T18:07:56.159Z,2.60
2019-05-21T18:10:26.015Z,2.15
2019-05-21T18:12:58.279Z,2.77
2019-05-21T18:15:28.407Z,1.85
2019-05-21T18:17:58.698Z,3.72
2019-05-21T18:20:29.239Z,3.50
2019-05-21T18:22:58.858Z,4.37
2019-05-21T18:25:28.402Z,3.95
2019-05-21T18:27:58.007Z,2.85
2019-05-21T18:30:27.681Z,2.20
2019-05-21T18:32:57.350Z,1.52
2019-05-21T18:35:28.514Z,2.85
2019-05-21T18:37:58.166Z,3.92
2019-05-21T18:40:27.782Z,1.50
2019-05-21T18:42:57.254Z,3.37
2019-05-21T18:45:26.803Z,2.30
2019-05-21T18:47:56.342Z,1.60
2019-05-21T18:50:35.619Z,1.50
2019-05-21T18:52:57.004Z,1.60
2019-05-21T18:55:26.519Z,2.22
2019-05-21T18:57:55.989Z,1.85
2019-05-21T19:00:26.655Z,3.85
2019-05-21T19:02:56.136Z,5.03
2019-05-21T19:05:25.808Z,1.95
2019-05-21T19:07:56.281Z,1.50
2019-05-21T19:10:25.913Z,1.62
2019-05-21T19:12:55.391Z,1.20
2019-05-21T19:15:24.848Z,1.22
2019-05-21T19:17:54.396Z,1.17
2019-05-21T19:20:26.086Z,1.02
2019-05-21T19:22:55.626Z,1.50
2019-05-21T19:25:26.751Z,1.20
2019-05-21T19:27:56.246Z,1.30
2019-05-21T19:30:25.695Z,1.62
2019-05-21T19:32:55.238Z,1.42
2019-05-21T19:35:25.791Z,1.30
2019-05-21T19:37:55.201Z,1.32
2019-05-21T19:40:24.680Z,1.15
2019-05-21T19:42:55.593Z,1.40
2019-05-21T19:45:25.292Z,1.52
2019-05-21T19:47:54.726Z,1.30
2019-05-21T19:50:24.304Z,1.45
2019-05-21T19:52:53.736Z,1.50
2019-05-21T19:55:23.994Z,1.92
2019-05-21T19:57:53.578Z,1.62
2019-05-21T20:00:24.718Z,1.30
2019-05-21T20:02:54.282Z,1.37
2019-05-21T20:05:23.817Z,1.70
2019-05-21T20:07:53.286Z,1.80
2019-05-21T20:10:22.847Z,1.50
2019-05-21T20:12:52.412Z,1.40
2019-05-21T20:15:21.948Z,1.55
2019-05-21T20:18:06.203Z,1.42
2019-05-21T20:20:25.619Z,1.70
2019-05-21T20:22:56.972Z,1.82
2019-05-21T20:25:26.999Z,1.50
2019-05-21T20:27:56.634Z,1.90
2019-05-21T20:30:26.712Z,1.62
2019-05-21T20:32:56.357Z,2.00
2019-05-21T20:35:27.808Z,1.92
2019-05-21T20:37:57.394Z,1.85
2019-05-21T20:40:27.009Z,2.10
2019-05-21T20:42:56.529Z,1.90
2019-05-21T20:45:27.413Z,1.82
2019-05-21T20:47:57.951Z,2.00
2019-05-21T20:50:27.778Z,2.00
2019-05-21T20:52:57.239Z,2.00
2019-05-21T20:55:26.813Z,1.87
2019-05-21T20:57:56.258Z,2.12
2019-05-21T21:00:30.329Z,2.72
2019-05-21T21:03:00.653Z,2.90
2019-05-21T21:05:30.974Z,1.72
2019-05-21T21:08:00.586Z,1.60
2019-05-21T21:10:30.326Z,1.40
2019-05-21T21:12:59.781Z,1.17
2019-05-21T21:15:29.388Z,1.10
2019-05-21T21:18:00.236Z,1.10
2019-05-21T21:20:29.654Z,1.15
2019-05-21T21:22:59.107Z,2.10
2019-05-21T21:25:30.505Z,2.72
2019-05-21T21:28:00.935Z,2.77
2019-05-21T21:30:31.111Z,3.12
2019-05-21T21:33:01.222Z,3.00
2019-05-21T21:35:31.551Z,3.10
2019-05-21T21:38:02.101Z,2.80
2019-05-21T21:40:32.199Z,1.72
2019-05-21T21:43:01.668Z,1.30
2019-05-21T21:45:32.323Z,1.37
2019-05-21T21:48:01.955Z,1.47
2019-05-21T21:50:31.588Z,1.30
2019-05-21T21:53:01.141Z,1.77
2019-05-21T21:55:32.085Z,2.10
2019-05-21T21:58:02.074Z,2.75
2019-05-21T22:01:00.157Z,4.40
2019-05-21T22:03:32.672Z,4.08
2019-05-21T22:06:04.690Z,6.10
2019-05-21T22:08:34.535Z,7.30
2019-05-21T22:11:04.080Z,4.80
2019-05-21T22:13:34.088Z,4.42
2019-05-21T22:16:04.200Z,5.33
2019-05-21T22:18:33.770Z,4.75
2019-05-21T22:21:03.405Z,2.60
2019-05-21T22:23:32.873Z,2.83
2019-05-21T22:26:02.327Z,1.75
2019-05-21T22:28:31.974Z,2.00
2019-05-21T22:31:01.545Z,2.95
2019-05-21T22:33:30.984Z,3.10
2019-05-21T22:36:00.447Z,2.85
2019-05-21T22:38:32.310Z,2.40
2019-05-21T22:41:01.758Z,2.60
2019-05-21T22:46:07.448Z,1.77
2019-05-21T22:48:36.888Z,1.80
2019-05-21T22:51:06.358Z,2.10
2019-05-21T22:53:35.772Z,1.92
2019-05-21T22:56:05.264Z,1.98
2019-05-21T22:58:34.707Z,1.75
2019-05-21T23:01:06.312Z,1.80
2019-05-21T23:03:35.766Z,1.98
2019-05-21T23:06:05.201Z,2.12
2019-05-21T23:08:34.571Z,2.12
2019-05-21T23:11:04.078Z,2.00
2019-05-21T23:13:33.513Z,2.25
2019-05-21T23:16:02.865Z,2.80
2019-05-21T23:18:33.478Z,2.85
2019-05-21T23:21:04.710Z,2.98
2019-05-21T23:23:35.829Z,2.90
2019-05-21T23:26:06.304Z,3.30
2019-05-21T23:28:35.939Z,3.62
2019-05-21T23:31:06.247Z,3.17
2019-05-21T23:33:36.129Z,3.58
2019-05-21T23:36:05.938Z,3.62
2019-05-21T23:38:36.719Z,3.58
2019-05-21T23:41:07.170Z,3.67
2019-05-21T23:43:36.688Z,3.45
2019-05-21T23:46:06.336Z,3.87
2019-05-21T23:48:36.422Z,3.72
2019-05-21T23:51:05.768Z,3.67
2019-05-21T23:53:35.189Z,3.77
2019-05-21T23:56:04.707Z,3.67
2019-05-21T23:58:34.418Z,3.72
